sensor_id;sensor_type;location;lat;lon;timestamp;P1;durP1;ratioP1;P2;durP2;ratioP2
62121;SDS011;48108;47.532;19.084;2023-02-28T04:46:28;7.87;;;5.87;;
62121;SDS011;48108;47.532;19.084;2023-02-28T04:49:33;12.73;;;6.37;;
62121;SDS011;48108;47.532;19.084;2023-02-28T04:52:35;10.70;;;6.25;;
62121;SDS011;48108;47.532;19.084;2023-02-28T04:55:38;10.85;;;6.10;;
62121;SDS011;48108;47.532;19.084;2023-02-28T04:58:43;10.68;;;6.90;;
62121;SDS011;48108;47.532;19.084;2023-02-28T05:01:47;11.80;;;6.28;;
62121;SDS011;48108;47.532;19.084;2023-02-28T05:04:51;11.32;;;5.93;;
62121;SDS011;48108;47.532;19.084;2023-02-28T05:07:54;10.45;;;6.25;;
62121;SDS011;48108;47.532;19.084;2023-02-28T05:10:57;9.15;;;6.07;;
62121;SDS011;48108;47.532;19.084;2023-02-28T05:14:03;12.23;;;7.07;;
62121;SDS011;48108;47.532;19.084;2023-02-28T05:17:08;11.50;;;6.28;;
62121;SDS011;48108;47.532;19.084;2023-02-28T05:20:12;11.00;;;6.53;;
62121;SDS011;48108;47.532;19.084;2023-02-28T05:26:34;11.52;;;6.03;;
62121;SDS011;48108;47.532;19.084;2023-02-28T05:29:41;12.43;;;6.32;;
62121;SDS011;48108;47.532;19.084;2023-02-28T05:32:49;10.55;;;6.32;;
62121;SDS011;48108;47.532;19.084;2023-02-28T05:35:53;14.35;;;6.60;;
62121;SDS011;48108;47.532;19.084;2023-02-28T05:38:56;9.48;;;5.62;;
62121;SDS011;48108;47.532;19.084;2023-02-28T05:41:59;10.50;;;6.28;;
62121;SDS011;48108;47.532;19.084;2023-02-28T05:45:02;9.30;;;5.75;;
62121;SDS011;48108;47.532;19.084;2023-02-28T05:48:07;9.05;;;5.47;;
62121;SDS011;48108;47.532;19.084;2023-02-28T05:51:10;12.60;;;6.50;;
62121;SDS011;48108;47.532;19.084;2023-02-28T05:54:13;13.48;;;6.18;;
62121;SDS011;48108;47.532;19.084;2023-02-28T05:57:16;14.00;;;5.37;;
62121;SDS011;48108;47.532;19.084;2023-02-28T06:00:26;12.48;;;6.60;;
62121;SDS011;48108;47.532;19.084;2023-02-28T06:03:29;14.95;;;7.10;;
62121;SDS011;48108;47.532;19.084;2023-02-28T06:06:32;14.27;;;6.28;;
62121;SDS011;48108;47.532;19.084;2023-02-28T06:09:38;10.80;;;5.82;;
62121;SDS011;48108;47.532;19.084;2023-02-28T06:12:41;11.00;;;6.05;;
62121;SDS011;48108;47.532;19.084;2023-02-28T06:15:44;9.98;;;5.55;;
62121;SDS011;48108;47.532;19.084;2023-02-28T06:18:47;9.57;;;6.18;;
62121;SDS011;48108;47.532;19.084;2023-02-28T06:21:50;10.85;;;5.53;;
62121;SDS011;48108;47.532;19.084;2023-02-28T06:24:55;13.10;;;5.25;;
62121;SDS011;48108;47.532;19.084;2023-02-28T06:27:59;13.77;;;5.93;;
62121;SDS011;48108;47.532;19.084;2023-02-28T06:31:06;12.82;;;5.72;;
62121;SDS011;48108;47.532;19.084;2023-02-28T06:34:11;10.65;;;5.47;;
62121;SDS011;48108;47.532;19.084;2023-02-28T06:37:14;10.23;;;5.60;;
62121;SDS011;48108;47.532;19.084;2023-02-28T06:40:17;9.60;;;5.25;;
62121;SDS011;48108;47.532;19.084;2023-02-28T06:43:21;10.38;;;5.68;;
62121;SDS011;48108;47.532;19.084;2023-02-28T06:46:26;10.07;;;5.78;;
62121;SDS011;48108;47.532;19.084;2023-02-28T06:49:30;16.48;;;6.20;;
62121;SDS011;48108;47.532;19.084;2023-02-28T06:52:34;10.90;;;5.82;;
62121;SDS011;48108;47.532;19.084;2023-02-28T06:55:40;11.48;;;5.45;;
62121;SDS011;48108;47.532;19.084;2023-02-28T06:58:47;9.23;;;5.32;;
62121;SDS011;48108;47.532;19.084;2023-02-28T07:01:51;12.65;;;5.93;;
62121;SDS011;48108;47.532;19.084;2023-02-28T07:04:54;11.02;;;5.40;;
62121;SDS011;48108;47.532;19.084;2023-02-28T07:07:57;8.48;;;5.82;;
62121;SDS011;48108;47.532;19.084;2023-02-28T07:11:01;10.55;;;5.90;;
62121;SDS011;48108;47.532;19.084;2023-02-28T07:14:04;21.33;;;6.53;;
62121;SDS011;48108;47.532;19.084;2023-02-28T07:17:07;11.43;;;5.50;;
62121;SDS011;48108;47.532;19.084;2023-02-28T07:20:13;11.60;;;5.35;;
62121;SDS011;48108;47.532;19.084;2023-02-28T07:23:17;7.30;;;5.18;;
62121;SDS011;48108;47.532;19.084;2023-02-28T07:26:20;13.30;;;6.10;;
62121;SDS011;48108;47.532;19.084;2023-02-28T07:29:23;8.90;;;5.18;;
62121;SDS011;48108;47.532;19.084;2023-02-28T07:32:26;12.45;;;5.40;;
62121;SDS011;48108;47.532;19.084;2023-02-28T07:35:30;10.77;;;5.70;;
62121;SDS011;48108;47.532;19.084;2023-02-28T07:38:34;11.88;;;5.97;;
62121;SDS011;48108;47.532;19.084;2023-02-28T07:41:38;12.85;;;6.12;;
62121;SDS011;48108;47.532;19.084;2023-02-28T07:44:45;9.65;;;5.75;;
62121;SDS011;48108;47.532;19.084;2023-02-28T07:47:48;12.40;;;5.87;;
62121;SDS011;48108;47.532;19.084;2023-02-28T07:50:58;12.68;;;6.37;;
62121;SDS011;48108;47.532;19.084;2023-02-28T07:54:02;10.63;;;6.12;;
62121;SDS011;48108;47.532;19.084;2023-02-28T07:57:05;10.52;;;5.87;;
62121;SDS011;48108;47.532;19.084;2023-02-28T08:00:09;9.70;;;6.47;;
62121;SDS011;48108;47.532;19.084;2023-02-28T08:03:16;10.40;;;5.70;;
62121;SDS011;48108;47.532;19.084;2023-02-28T08:06:22;9.10;;;5.80;;
62121;SDS011;48108;47.532;19.084;2023-02-28T08:09:26;8.48;;;5.90;;
62121;SDS011;48108;47.532;19.084;2023-02-28T08:12:29;9.60;;;6.05;;
62121;SDS011;48108;47.532;19.084;2023-02-28T08:15:32;9.93;;;5.55;;
62121;SDS011;48108;47.532;19.084;2023-02-28T08:18:34;11.43;;;6.05;;
62121;SDS011;48108;47.532;19.084;2023-02-28T08:21:38;11.45;;;6.37;;
62121;SDS011;48108;47.532;19.084;2023-02-28T08:24:42;10.38;;;5.55;;
62121;SDS011;48108;47.532;19.084;2023-02-28T08:27:46;13.07;;;7.37;;
62121;SDS011;48108;47.532;19.084;2023-02-28T08:30:49;10.13;;;5.95;;
62121;SDS011;48108;47.532;19.084;2023-02-28T08:33:52;11.38;;;6.05;;
62121;SDS011;48108;47.532;19.084;2023-02-28T08:36:55;9.30;;;5.87;;
62121;SDS011;48108;47.532;19.084;2023-02-28T08:39:58;8.38;;;5.62;;
62121;SDS011;48108;47.532;19.084;2023-02-28T08:43:06;11.30;;;5.55;;
62121;SDS011;48108;47.532;19.084;2023-02-28T08:46:11;10.65;;;5.57;;
62121;SDS011;48108;47.532;19.084;2023-02-28T08:49:14;10.65;;;5.57;;
62121;SDS011;48108;47.532;19.084;2023-02-28T08:52:18;8.18;;;5.25;;
62121;SDS011;48108;47.532;19.084;2023-02-28T08:55:21;7.43;;;3.95;;
62121;SDS011;48108;47.532;19.084;2023-02-28T08:58:25;5.55;;;4.37;;
62121;SDS011;48108;47.532;19.084;2023-02-28T09:01:28;8.43;;;5.43;;
62121;SDS011;48108;47.532;19.084;2023-02-28T09:04:33;8.55;;;4.93;;
62121;SDS011;48108;47.532;19.084;2023-02-28T09:07:36;10.52;;;5.82;;
62121;SDS011;48108;47.532;19.084;2023-02-28T09:10:39;9.35;;;5.12;;
62121;SDS011;48108;47.532;19.084;2023-02-28T09:13:42;11.10;;;5.55;;
62121;SDS011;48108;47.532;19.084;2023-02-28T09:16:45;10.65;;;5.70;;
62121;SDS011;48108;47.532;19.084;2023-02-28T09:19:48;8.10;;;4.35;;
62121;SDS011;48108;47.532;19.084;2023-02-28T09:22:51;9.32;;;5.15;;
62121;SDS011;48108;47.532;19.084;2023-02-28T09:25:54;9.40;;;4.87;;
62121;SDS011;48108;47.532;19.084;2023-02-28T09:28:57;7.40;;;4.70;;
62121;SDS011;48108;47.532;19.084;2023-02-28T09:32:04;8.20;;;5.68;;
62121;SDS011;48108;47.532;19.084;2023-02-28T09:35:08;8.32;;;5.65;;
62121;SDS011;48108;47.532;19.084;2023-02-28T09:38:15;8.25;;;4.82;;
62121;SDS011;48108;47.532;19.084;2023-02-28T09:41:21;10.10;;;5.68;;
62121;SDS011;48108;47.532;19.084;2023-02-28T09:44:30;10.15;;;4.95;;
62121;SDS011;48108;47.532;19.084;2023-02-28T09:47:39;9.40;;;5.30;;
62121;SDS011;48108;47.532;19.084;2023-02-28T09:50:46;13.73;;;5.62;;
62121;SDS011;48108;47.532;19.084;2023-02-28T09:53:53;8.60;;;5.12;;
62121;SDS011;48108;47.532;19.084;2023-02-28T09:57:08;11.65;;;5.22;;
62121;SDS011;48108;47.532;19.084;2023-02-28T10:00:40;6.78;;;5.05;;
62121;SDS011;48108;47.532;19.084;2023-02-28T10:04:08;12.60;;;5.75;;
62121;SDS011;48108;47.532;19.084;2023-02-28T10:10:43;9.25;;;5.60;;
62121;SDS011;48108;47.532;19.084;2023-02-28T10:16:59;14.10;;;5.07;;
62121;SDS011;48108;47.532;19.084;2023-02-28T10:20:14;9.85;;;5.35;;
62121;SDS011;48108;47.532;19.084;2023-02-28T10:23:26;7.15;;;5.03;;
62121;SDS011;48108;47.532;19.084;2023-02-28T10:26:34;8.38;;;5.45;;
62121;SDS011;48108;47.532;19.084;2023-02-28T10:29:39;9.75;;;5.55;;
62121;SDS011;48108;47.532;19.084;2023-02-28T10:32:49;7.18;;;5.53;;
62121;SDS011;48108;47.532;19.084;2023-02-28T10:35:56;9.27;;;5.37;;
62121;SDS011;48108;47.532;19.084;2023-02-28T10:38:59;9.65;;;5.40;;
62121;SDS011;48108;47.532;19.084;2023-02-28T10:42:03;7.97;;;5.37;;
62121;SDS011;48108;47.532;19.084;2023-02-28T10:51:18;9.10;;;5.20;;
62121;SDS011;48108;47.532;19.084;2023-02-28T10:54:23;7.28;;;5.18;;
62121;SDS011;48108;47.532;19.084;2023-02-28T10:57:30;5.65;;;4.53;;
62121;SDS011;48108;47.532;19.084;2023-02-28T11:00:34;7.72;;;4.90;;
62121;SDS011;48108;47.532;19.084;2023-02-28T11:03:38;8.30;;;5.07;;
62121;SDS011;48108;47.532;19.084;2023-02-28T11:06:41;8.38;;;5.07;;
62121;SDS011;48108;47.532;19.084;2023-02-28T11:09:45;8.70;;;5.37;;
62121;SDS011;48108;47.532;19.084;2023-02-28T11:12:55;8.05;;;5.47;;
62121;SDS011;48108;47.532;19.084;2023-02-28T11:19:06;9.90;;;5.57;;
62121;SDS011;48108;47.532;19.084;2023-02-28T11:22:28;10.93;;;5.82;;
62121;SDS011;48108;47.532;19.084;2023-02-28T11:25:35;9.93;;;5.32;;
62121;SDS011;48108;47.532;19.084;2023-02-28T11:28:41;9.65;;;5.70;;
62121;SDS011;48108;47.532;19.084;2023-02-28T11:32:00;8.45;;;5.65;;
62121;SDS011;48108;47.532;19.084;2023-02-28T11:38:13;9.32;;;5.37;;
62121;SDS011;48108;47.532;19.084;2023-02-28T11:41:35;12.05;;;5.87;;
62121;SDS011;48108;47.532;19.084;2023-02-28T11:44:53;9.48;;;5.78;;
62121;SDS011;48108;47.532;19.084;2023-02-28T12:04:25;12.32;;;5.95;;
62121;SDS011;48108;47.532;19.084;2023-02-28T12:11:15;8.85;;;5.50;;
62121;SDS011;48108;47.532;19.084;2023-02-28T12:27:29;8.65;;;4.10;;
62121;SDS011;48108;47.532;19.084;2023-02-28T12:30:35;5.10;;;3.70;;
62121;SDS011;48108;47.532;19.084;2023-02-28T12:33:51;6.37;;;4.10;;
62121;SDS011;48108;47.532;19.084;2023-02-28T12:36:56;5.93;;;4.00;;
62121;SDS011;48108;47.532;19.084;2023-02-28T12:40:05;6.22;;;4.28;;
62121;SDS011;48108;47.532;19.084;2023-02-28T12:43:16;7.00;;;4.20;;
62121;SDS011;48108;47.532;19.084;2023-02-28T12:46:21;8.63;;;4.47;;
62121;SDS011;48108;47.532;19.084;2023-02-28T12:49:30;7.22;;;4.47;;
62121;SDS011;48108;47.532;19.084;2023-02-28T12:59:20;6.12;;;4.45;;
62121;SDS011;48108;47.532;19.084;2023-02-28T13:03:12;6.57;;;4.18;;
62121;SDS011;48108;47.532;19.084;2023-02-28T13:06:04;7.20;;;4.43;;
62121;SDS011;48108;47.532;19.084;2023-02-28T13:09:33;6.85;;;3.95;;
62121;SDS011;48108;47.532;19.084;2023-02-28T13:12:36;8.95;;;5.18;;
62121;SDS011;48108;47.532;19.084;2023-02-28T13:19:08;14.82;;;5.00;;
62121;SDS011;48108;47.532;19.084;2023-02-28T13:38:15;9.45;;;4.93;;
62121;SDS011;48108;47.532;19.084;2023-02-28T13:44:36;6.78;;;4.00;;
62121;SDS011;48108;47.532;19.084;2023-02-28T13:48:18;7.97;;;4.00;;
62121;SDS011;48108;47.532;19.084;2023-02-28T13:54:58;5.12;;;3.85;;
62121;SDS011;48108;47.532;19.084;2023-02-28T14:04:57;5.50;;;4.10;;
62121;SDS011;48108;47.532;19.084;2023-02-28T14:08:05;6.12;;;4.45;;
62121;SDS011;48108;47.532;19.084;2023-02-28T14:11:29;8.63;;;4.78;;
62121;SDS011;48108;47.532;19.084;2023-02-28T14:17:38;6.25;;;4.57;;
62121;SDS011;48108;47.532;19.084;2023-02-28T14:20:43;8.05;;;4.80;;
62121;SDS011;48108;47.532;19.084;2023-02-28T14:33:49;7.07;;;4.30;;
62121;SDS011;48108;47.532;19.084;2023-02-28T14:37:03;7.55;;;4.78;;
62121;SDS011;48108;47.532;19.084;2023-02-28T14:43:48;7.18;;;4.82;;
62121;SDS011;48108;47.532;19.084;2023-02-28T14:47:01;6.40;;;4.28;;
62121;SDS011;48108;47.532;19.084;2023-02-28T14:50:07;11.40;;;5.05;;
62121;SDS011;48108;47.532;19.084;2023-02-28T14:53:26;7.87;;;4.62;;
62121;SDS011;48108;47.532;19.084;2023-02-28T14:56:35;6.85;;;4.62;;
62121;SDS011;48108;47.532;19.084;2023-02-28T14:59:40;9.00;;;4.75;;
62121;SDS011;48108;47.532;19.084;2023-02-28T15:02:44;6.95;;;4.60;;
62121;SDS011;48108;47.532;19.084;2023-02-28T15:05:57;7.15;;;4.72;;
62121;SDS011;48108;47.532;19.084;2023-02-28T15:09:17;10.10;;;4.72;;
62121;SDS011;48108;47.532;19.084;2023-02-28T15:12:21;6.30;;;4.70;;
62121;SDS011;48108;47.532;19.084;2023-02-28T15:15:25;10.75;;;4.95;;
62121;SDS011;48108;47.532;19.084;2023-02-28T15:18:55;8.57;;;5.10;;
62121;SDS011;48108;47.532;19.084;2023-02-28T15:22:04;8.43;;;5.00;;
62121;SDS011;48108;47.532;19.084;2023-02-28T15:25:15;7.20;;;4.62;;
62121;SDS011;48108;47.532;19.084;2023-02-28T15:28:22;9.43;;;4.95;;
62121;SDS011;48108;47.532;19.084;2023-02-28T15:31:28;8.77;;;5.03;;
62121;SDS011;48108;47.532;19.084;2023-02-28T15:34:48;7.87;;;4.93;;
62121;SDS011;48108;47.532;19.084;2023-02-28T15:37:55;7.03;;;4.80;;
62121;SDS011;48108;47.532;19.084;2023-02-28T15:41:02;11.23;;;5.60;;
62121;SDS011;48108;47.532;19.084;2023-02-28T15:44:30;11.73;;;5.75;;
62121;SDS011;48108;47.532;19.084;2023-02-28T15:47:39;11.48;;;5.32;;
62121;SDS011;48108;47.532;19.084;2023-02-28T15:51:02;8.82;;;5.47;;
62121;SDS011;48108;47.532;19.084;2023-02-28T15:54:14;10.18;;;5.78;;
62121;SDS011;48108;47.532;19.084;2023-02-28T15:57:24;11.65;;;6.00;;
62121;SDS011;48108;47.532;19.084;2023-02-28T16:00:30;12.73;;;5.53;;
62121;SDS011;48108;47.532;19.084;2023-02-28T16:03:39;8.90;;;5.78;;
62121;SDS011;48108;47.532;19.084;2023-02-28T16:10:00;12.10;;;6.82;;
62121;SDS011;48108;47.532;19.084;2023-02-28T16:13:04;11.65;;;6.20;;
62121;SDS011;48108;47.532;19.084;2023-02-28T16:16:07;8.85;;;5.62;;
62121;SDS011;48108;47.532;19.084;2023-02-28T16:19:10;9.35;;;5.68;;
62121;SDS011;48108;47.532;19.084;2023-02-28T16:22:13;7.80;;;5.25;;
62121;SDS011;48108;47.532;19.084;2023-02-28T16:25:18;12.48;;;6.12;;
62121;SDS011;48108;47.532;19.084;2023-02-28T16:28:25;10.13;;;5.97;;
62121;SDS011;48108;47.532;19.084;2023-02-28T16:31:34;11.75;;;6.28;;
62121;SDS011;48108;47.532;19.084;2023-02-28T16:34:40;8.80;;;5.78;;
62121;SDS011;48108;47.532;19.084;2023-02-28T16:37:44;11.75;;;5.70;;
62121;SDS011;48108;47.532;19.084;2023-02-28T16:40:49;12.00;;;5.53;;
62121;SDS011;48108;47.532;19.084;2023-02-28T16:43:53;11.70;;;6.32;;
62121;SDS011;48108;47.532;19.084;2023-02-28T16:47:03;11.63;;;6.07;;
62121;SDS011;48108;47.532;19.084;2023-02-28T16:50:12;15.38;;;5.68;;
62121;SDS011;48108;47.532;19.084;2023-02-28T16:53:18;11.52;;;6.43;;
62121;SDS011;48108;47.532;19.084;2023-02-28T16:56:22;15.05;;;6.70;;
62121;SDS011;48108;47.532;19.084;2023-02-28T16:59:31;15.13;;;6.40;;
62121;SDS011;48108;47.532;19.084;2023-02-28T17:02:34;12.13;;;6.28;;
